Wolfcreek, Wisconsin
Current Conditions -  °F | °C
As of 8:15 AM on Saturday 01 Nov 2014 (Local Time) from KOEO Reporting Station
Clear Clear  
Wind Chill: 22°   Ceiling: Unl
Heat Index: 22°   Visibility: 10mi
Dew Point: 19°   Wind: 0mph
Humidity: 85%   Direction: NA
Pressure: 30.49"   Gusts: NA
Location:  45.4182°N, 92.6295°W
Report Text: KOEO 011315Z AUTO 00000KT 10SM CLR M05/M07 A3049 RMK AO2 T10541075
Loading
Personal Weather Stations






























Interactive Weather Map
Tropical Storm Tracking
New forecast layout! Learn more

10-Day Weather Forecast

Advertisements
Track Severe Weather on mobile